Time,TemperatureF,DewpointF,PressureIn,WindDirection,WindDirectionDegrees,WindSpeedMPH,WindSpeedGustMPH,Humidity,HourlyPrecipIn,Conditions,Clouds,dailyrainin,SoftwareType,DateUTC
2013-03-09 00:07:00,62.1,48.5,29.95,NNE,22,4.3,-999.0,61,-99.99,,,0.00,Acu-Link.com,2013-03-09 05:07:00,
2013-03-09 00:23:00,62.2,49.5,29.95,NNW,337,6.3,-999.0,63,-99.99,,,0.00,Acu-Link.com,2013-03-09 05:23:00,
2013-03-09 00:38:00,62.2,50.3,29.94,NNE,22,4.7,-999.0,65,-99.99,,,0.00,Acu-Link.com,2013-03-09 05:38:00,
2013-03-09 00:53:00,61.9,52.0,29.94,NE,45,4.7,-999.0,70,-99.99,,,0.00,Acu-Link.com,2013-03-09 05:53:00,
2013-03-09 01:08:00,58.6,49.3,29.94,West,270,2.7,-999.0,71,-99.99,,,0.00,Acu-Link.com,2013-03-09 06:08:00,
2013-03-09 01:23:00,55.8,48.3,29.94,West,270,0.0,-999.0,76,-99.99,,,0.00,Acu-Link.com,2013-03-09 06:23:00,
2013-03-09 01:39:00,54.0,48.6,29.93,West,270,0.0,-999.0,82,-99.99,,,0.00,Acu-Link.com,2013-03-09 06:39:00,
2013-03-09 01:54:00,53.1,48.7,29.93,West,270,0.0,-999.0,85,-99.99,,,0.00,Acu-Link.com,2013-03-09 06:54:00,
2013-03-09 02:09:00,52.5,49.7,29.91,West,270,2.2,-999.0,90,-99.99,,,0.00,Acu-Link.com,2013-03-09 07:09:00,
2013-03-09 02:25:00,52.7,50.4,29.91,North,0,2.2,-999.0,92,-99.99,,,0.00,Acu-Link.com,2013-03-09 07:25:00,
2013-03-09 02:40:00,53.4,51.2,29.90,NW,315,1.6,-999.0,92,-99.99,,,0.00,Acu-Link.com,2013-03-09 07:40:00,
2013-03-09 02:55:00,53.2,50.7,29.90,West,270,2.2,-999.0,91,-99.99,,,0.00,Acu-Link.com,2013-03-09 07:55:00,
2013-03-09 03:11:00,52.5,50.3,29.90,West,270,2.2,-999.0,92,-99.99,,,0.00,Acu-Link.com,2013-03-09 08:11:00,
2013-03-09 03:26:00,52.2,50.2,29.90,NW,315,1.6,-999.0,93,-99.99,,,0.00,Acu-Link.com,2013-03-09 08:26:00,
2013-03-09 03:41:00,52.2,50.2,29.90,NW,315,1.6,-999.0,93,-99.99,,,0.00,Acu-Link.com,2013-03-09 08:41:00,
2013-03-09 03:56:00,51.6,49.7,29.89,NW,315,0.0,-999.0,93,-99.99,,,0.00,Acu-Link.com,2013-03-09 08:56:00,
2013-03-09 04:12:00,51.3,49.3,29.88,NW,315,1.6,-999.0,93,-99.99,,,0.00,Acu-Link.com,2013-03-09 09:12:00,
2013-03-09 04:27:00,51.1,49.1,29.88,NW,315,1.6,-999.0,93,-99.99,,,0.00,Acu-Link.com,2013-03-09 09:27:00,
2013-03-09 04:42:00,50.2,48.5,29.88,NW,315,2.2,-999.0,94,-99.99,,,0.00,Acu-Link.com,2013-03-09 09:42:00,
2013-03-09 04:57:00,50.4,48.7,29.89,West,270,2.7,-999.0,94,-99.99,,,0.00,Acu-Link.com,2013-03-09 09:57:00,
2013-03-09 05:13:00,50.5,48.6,29.89,West,270,2.2,-999.0,93,-99.99,,,0.00,Acu-Link.com,2013-03-09 10:13:00,
2013-03-09 05:28:00,50.4,48.1,29.90,West,270,2.2,-999.0,92,-99.99,,,0.00,Acu-Link.com,2013-03-09 10:28:00,
2013-03-09 05:43:00,49.3,47.3,29.91,West,270,0.0,-999.0,93,-99.99,,,0.00,Acu-Link.com,2013-03-09 10:43:00,
2013-03-09 05:59:00,49.1,47.4,29.91,West,270,1.6,-999.0,94,-99.99,,,0.00,Acu-Link.com,2013-03-09 10:59:00,
2013-03-09 06:14:00,48.4,47.0,29.92,West,270,1.1,-999.0,95,-99.99,,,0.00,Acu-Link.com,2013-03-09 11:14:00,
2013-03-09 06:29:00,48.0,46.9,29.92,West,270,1.6,-999.0,96,-99.99,,,0.00,Acu-Link.com,2013-03-09 11:29:00,
2013-03-09 06:44:00,47.8,47.0,29.92,West,270,2.2,-999.0,97,-99.99,,,0.00,Acu-Link.com,2013-03-09 11:44:00,
2013-03-09 07:00:00,48.6,47.7,29.93,West,270,1.1,-999.0,97,-99.99,,,0.00,Acu-Link.com,2013-03-09 12:00:00,
2013-03-09 07:15:00,49.8,48.4,29.93,West,270,1.6,-999.0,95,-99.99,,,0.00,Acu-Link.com,2013-03-09 12:15:00,
2013-03-09 07:30:00,52.3,49.5,29.94,West,270,1.6,-999.0,90,-99.99,,,0.00,Acu-Link.com,2013-03-09 12:30:00,
2013-03-09 07:46:00,55.2,50.8,29.94,West,270,3.8,-999.0,85,-99.99,,,0.00,Acu-Link.com,2013-03-09 12:46:00,
2013-03-09 08:01:00,57.0,51.9,29.95,NW,315,2.7,-999.0,83,-99.99,,,0.00,Acu-Link.com,2013-03-09 13:01:00,
2013-03-09 08:16:00,58.8,52.3,29.95,West,270,2.2,-999.0,79,-99.99,,,0.00,Acu-Link.com,2013-03-09 13:16:00,
2013-03-09 08:32:00,61.0,53.4,29.95,West,270,2.2,-999.0,76,-99.99,,,0.00,Acu-Link.com,2013-03-09 13:32:00,
2013-03-09 08:47:00,62.2,53.8,29.96,WNW,292,3.1,-999.0,74,-99.99,,,0.00,Acu-Link.com,2013-03-09 13:47:00,
2013-03-09 09:02:00,62.2,53.8,29.96,WNW,292,3.1,-999.0,74,-99.99,,,0.00,Acu-Link.com,2013-03-09 14:02:00,
2013-03-09 09:17:00,66.4,54.3,29.97,NE,45,3.8,-999.0,65,-99.99,,,0.00,Acu-Link.com,2013-03-09 14:17:00,
2013-03-09 09:32:00,66.4,54.3,29.97,NE,45,3.8,-999.0,65,-99.99,,,0.00,Acu-Link.com,2013-03-09 14:32:00,
2013-03-09 09:48:00,66.4,54.3,29.97,NE,45,3.8,-999.0,65,-99.99,,,0.00,Acu-Link.com,2013-03-09 14:48:00,
2013-03-09 10:17:00,70.9,53.4,29.97,North,0,7.4,-999.0,54,-99.99,,,0.00,Acu-Link.com,2013-03-09 15:17:00,
2013-03-09 10:32:00,71.2,53.2,29.97,East,90,9.8,-999.0,53,-99.99,,,0.00,Acu-Link.com,2013-03-09 15:32:00,
2013-03-09 10:48:00,71.8,53.2,29.98,ESE,112,11.0,-999.0,52,-99.99,,,0.00,Acu-Link.com,2013-03-09 15:48:00,
2013-03-09 11:03:00,72.0,52.8,29.98,East,90,10.3,-999.0,51,-99.99,,,0.00,Acu-Link.com,2013-03-09 16:03:00,
2013-03-09 11:18:00,71.8,53.2,29.98,ESE,112,8.3,-999.0,52,-99.99,,,0.00,Acu-Link.com,2013-03-09 16:18:00,
2013-03-09 11:34:00,72.1,53.0,29.98,ENE,67,8.9,-999.0,51,-99.99,,,0.00,Acu-Link.com,2013-03-09 16:34:00,
2013-03-09 11:49:00,71.6,53.0,29.99,NE,45,6.7,-999.0,52,-99.99,,,0.00,Acu-Link.com,2013-03-09 16:49:00,
2013-03-09 12:04:00,71.6,53.0,29.99,NNW,337,6.3,-999.0,52,-99.99,,,0.00,Acu-Link.com,2013-03-09 17:04:00,
2013-03-09 12:20:00,72.5,52.8,29.98,ENE,67,8.3,-999.0,50,-99.99,,,0.00,Acu-Link.com,2013-03-09 17:20:00,
2013-03-09 12:35:00,72.9,52.6,29.97,NNE,22,8.3,-999.0,49,-99.99,,,0.00,Acu-Link.com,2013-03-09 17:35:00,
2013-03-09 12:50:00,72.7,51.8,29.96,NNE,22,4.7,-999.0,48,-99.99,,,0.00,Acu-Link.com,2013-03-09 17:50:00,
2013-03-09 13:05:00,72.5,51.7,29.96,ENE,67,4.7,-999.0,48,-99.99,,,0.00,Acu-Link.com,2013-03-09 18:05:00,
2013-03-09 13:21:00,73.2,52.3,29.96,NE,45,7.4,-999.0,48,-99.99,,,0.00,Acu-Link.com,2013-03-09 18:21:00,
2013-03-09 13:36:00,73.0,53.3,29.96,NNE,22,7.4,-999.0,50,-99.99,,,0.00,Acu-Link.com,2013-03-09 18:36:00,
2013-03-09 13:51:00,73.8,53.9,29.93,NW,315,6.7,-999.0,50,-99.99,,,0.00,Acu-Link.com,2013-03-09 18:51:00,
2013-03-09 14:07:00,72.7,53.0,29.94,ENE,67,5.8,-999.0,50,-99.99,,,0.00,Acu-Link.com,2013-03-09 19:07:00,
2013-03-09 14:22:00,72.3,52.1,29.94,NE,45,10.3,-999.0,49,-99.99,,,0.00,Acu-Link.com,2013-03-09 19:22:00,
2013-03-09 14:37:00,72.9,52.6,29.93,NE,45,7.4,-999.0,49,-99.99,,,0.00,Acu-Link.com,2013-03-09 19:37:00,
2013-03-09 14:53:00,71.8,52.7,29.93,ENE,67,11.9,-999.0,51,-99.99,,,0.00,Acu-Link.com,2013-03-09 19:53:00,
2013-03-09 15:08:00,70.5,53.6,29.93,ENE,67,6.3,-999.0,55,-99.99,,,0.00,Acu-Link.com,2013-03-09 20:08:00,
2013-03-09 15:23:00,70.2,52.2,29.93,NNE,22,7.8,-999.0,53,-99.99,,,0.00,Acu-Link.com,2013-03-09 20:23:00,
2013-03-09 15:38:00,70.3,52.4,29.92,NE,45,10.3,-999.0,53,-99.99,,,0.00,Acu-Link.com,2013-03-09 20:38:00,
2013-03-09 15:54:00,69.3,51.9,29.92,NE,45,10.3,-999.0,54,-99.99,,,0.00,Acu-Link.com,2013-03-09 20:54:00,
2013-03-09 16:09:00,69.3,52.4,29.92,ENE,67,11.0,-999.0,55,-99.99,,,0.00,Acu-Link.com,2013-03-09 21:09:00,
2013-03-09 16:24:00,69.4,52.6,29.93,ENE,67,6.7,-999.0,55,-99.99,,,0.00,Acu-Link.com,2013-03-09 21:24:00,
2013-03-09 16:40:00,67.8,52.0,29.92,NE,45,8.9,-999.0,57,-99.99,,,0.00,Acu-Link.com,2013-03-09 21:40:00,
2013-03-09 16:55:00,68.9,52.5,29.93,WNW,292,7.4,-999.0,56,-99.99,,,0.00,Acu-Link.com,2013-03-09 21:55:00,
2013-03-09 17:10:00,68.2,51.9,29.93,NNE,22,5.8,-999.0,56,-99.99,,,0.00,Acu-Link.com,2013-03-09 22:10:00,
2013-03-09 17:26:00,68.2,51.9,29.93,ENE,67,5.1,-999.0,56,-99.99,,,0.00,Acu-Link.com,2013-03-09 22:26:00,
2013-03-09 17:41:00,66.7,51.5,29.93,NE,45,6.3,-999.0,58,-99.99,,,0.00,Acu-Link.com,2013-03-09 22:41:00,
2013-03-09 17:56:00,66.2,51.4,29.94,East,90,6.3,-999.0,59,-99.99,,,0.00,Acu-Link.com,2013-03-09 22:56:00,
2013-03-09 18:11:00,66.0,51.7,29.94,NE,45,8.9,-999.0,60,-99.99,,,0.00,Acu-Link.com,2013-03-09 23:11:00,
2013-03-09 18:26:00,66.0,51.7,29.95,NE,45,5.1,-999.0,60,-99.99,,,0.00,Acu-Link.com,2013-03-09 23:26:00,
2013-03-09 18:42:00,65.8,52.0,29.95,NNE,22,3.1,-999.0,61,-99.99,,,0.00,Acu-Link.com,2013-03-09 23:42:00,
2013-03-09 18:57:00,65.8,52.5,29.96,NE,45,7.4,-999.0,62,-99.99,,,0.00,Acu-Link.com,2013-03-09 23:57:00,
2013-03-09 19:12:00,65.7,53.1,29.94,NNE,22,4.3,-999.0,64,-99.99,,,0.00,Acu-Link.com,2013-03-10 00:12:00,
2013-03-09 19:28:00,65.7,53.6,29.94,NNE,22,7.4,-999.0,65,-99.99,,,0.00,Acu-Link.com,2013-03-10 00:28:00,
2013-03-09 19:43:00,65.7,53.6,29.94,NE,45,5.8,-999.0,65,-99.99,,,0.00,Acu-Link.com,2013-03-10 00:43:00,
2013-03-09 19:58:00,65.8,52.9,29.94,NNE,22,4.7,-999.0,63,-99.99,,,0.00,Acu-Link.com,2013-03-10 00:58:00,
2013-03-09 20:14:00,65.8,53.3,29.95,NE,45,5.8,-999.0,64,-99.99,,,0.00,Acu-Link.com,2013-03-10 01:14:00,
2013-03-09 20:29:00,65.8,53.3,29.96,ENE,67,4.7,-999.0,64,-99.99,,,0.00,Acu-Link.com,2013-03-10 01:29:00,
2013-03-09 20:44:00,65.5,53.4,29.96,North,0,5.8,-999.0,65,-99.99,,,0.00,Acu-Link.com,2013-03-10 01:44:00,
2013-03-09 20:59:00,65.3,55.3,29.96,NNW,337,4.7,-999.0,70,-99.99,,,0.00,Acu-Link.com,2013-03-10 01:59:00,
2013-03-09 21:15:00,65.3,54.1,29.96,ENE,67,3.8,-999.0,67,-99.99,,,0.00,Acu-Link.com,2013-03-10 02:15:00,
2013-03-09 21:30:00,65.7,54.0,29.95,East,90,6.7,-999.0,66,-99.99,,,0.00,Acu-Link.com,2013-03-10 02:30:00,
2013-03-09 21:45:00,65.5,54.6,29.96,ENE,67,3.8,-999.0,68,-99.99,,,0.00,Acu-Link.com,2013-03-10 02:45:00,
2013-03-09 22:01:00,64.9,54.5,29.96,East,90,2.7,-999.0,69,-99.99,,,0.00,Acu-Link.com,2013-03-10 03:01:00,
2013-03-09 22:16:00,64.9,54.1,29.95,ESE,112,7.4,-999.0,68,-99.99,,,0.00,Acu-Link.com,2013-03-10 03:16:00,
2013-03-09 22:31:00,65.3,54.1,29.94,ENE,67,3.8,-999.0,67,-99.99,,,0.00,Acu-Link.com,2013-03-10 03:31:00,
2013-03-09 22:47:00,65.7,54.4,29.95,ENE,67,6.7,-999.0,67,-99.99,,,0.00,Acu-Link.com,2013-03-10 03:47:00,
2013-03-09 23:02:00,66.0,54.7,29.96,NE,45,7.8,-999.0,67,-99.99,,,0.00,Acu-Link.com,2013-03-10 04:02:00,
2013-03-09 23:17:00,66.0,54.7,29.96,NNE,22,4.3,-999.0,67,-99.99,,,0.00,Acu-Link.com,2013-03-10 04:17:00,
2013-03-09 23:32:00,66.0,53.9,29.95,ENE,67,7.4,-999.0,65,-99.99,,,0.00,Acu-Link.com,2013-03-10 04:32:00,
2013-03-09 23:48:00,65.3,54.1,29.95,East,90,8.3,-999.0,67,-99.99,,,0.00,Acu-Link.com,2013-03-10 04:48:00,